Etusivu
METAR-TAF:

METAR-TAF

Lentoasemat :

Alma, Michigan, Yhdysvallat

Leveyspiiri: 43-19-19N, Pituuspiiri: 084-41-16W, korkeus merenpinnasta: 229 m

Tämänhetkinen sää

Tämä raportti tehtiin 11 minuuttia sitten, kello 18.36 UTC
Tuuli 5 kn lännestä/lounaasta
Lämpötila 2°C
Kosteus 80%
Ilmanpaine 1004 hPa
Näkyvyys: 16.1 km
Hajonneita pilviä 1800 ft:n korkeudessa
Hajonneita pilviä 3300 ft:n korkeudessa
Pilvistä 5000 ft:n korkeudessa

METAR: KAMN 171836Z AUTO 24005KT 10SM BKN018 BKN033 OVC050 02/M01 A2964 RMK AO2 T00201011

Aika: 13:47 (18:47 UTC)


TAF: puuttuu

Säähavainnot ja -ennusteet yli 4000 lentoasemalta (METAR- ja TAF-raportit).

Käytössä olevat sääasemat on merkitty karttaan keltaisilla ja punaisilla pisteillä.

Aseta hiiri pisteen päälle nähdäksesi sääaseman nimen.

Klikkaa sitten nähdäksesi säähavainnot ja -ennusteet.

Kartan vaihtaminen: klikkaa mustalla rastilla varustettuja vihreitä pisteitä, niin voit zoomata sisään; viivalla varustettua vihreää pistettä, niin voit zoomata ulos tai vihreitä nuolia, niin pääset viereisille kartoille.


METAR-TAF: